Time;durP1;ratioP1;P1;durP2;ratioP2;P2;SDS_P1;SDS_P2;PMS_P1;PMS_P2;Temp;Humidity;BMP_temperature;BMP_pressure;BME280_temperature;BME280_humidity;BME280_pressure;Samples;Min_cycle;Max_cycle;Signal;HPM_P1;HPM_P2
2022/07/28 00:00:00;;;;;;;4.30;1.50;;;20.90;52.30;;;;;;5053490;28;20043;-64
2022/07/28 00:02:26;;;;;;;1.98;1.40;;;20.80;52.50;;;;;;5050095;28;20060;-62
2022/07/28 00:04:52;;;;;;;2.53;1.45;;;20.70;52.80;;;;;;5053258;28;20051;-64
2022/07/28 00:07:18;;;;;;;3.50;1.17;;;20.60;52.90;;;;;;5051522;28;20094;-63
2022/07/28 00:09:43;;;;;;;2.03;1.48;;;20.60;53.00;;;;;;5052605;28;20082;-65
2022/07/28 00:12:09;;;;;;;3.05;1.40;;;20.50;53.00;;;;;;5048403;28;20558;-64
2022/07/28 00:14:35;;;;;;;1.90;1.40;;;20.50;53.00;;;;;;5054939;28;20036;-61
2022/07/28 00:17:01;;;;;;;2.67;1.30;;;20.50;53.00;;;;;;5052015;28;22464;-62
2022/07/28 00:19:27;;;;;;;2.28;1.45;;;20.50;53.30;;;;;;5052833;28;20428;-63
2022/07/28 00:21:52;;;;;;;1.23;1.13;;;20.50;53.60;;;;;;5051098;28;20037;-64
2022/07/28 00:24:18;;;;;;;1.52;1.40;;;20.40;53.60;;;;;;5050748;28;20175;-62
2022/07/28 00:26:44;;;;;;;2.22;1.27;;;20.40;53.50;;;;;;5050134;28;20040;-65
2022/07/28 00:29:09;;;;;;;1.30;1.20;;;20.40;53.60;;;;;;5052199;28;20151;-63
2022/07/28 00:31:35;;;;;;;1.35;1.25;;;20.40;53.70;;;;;;5051275;28;20045;-61
2022/07/28 00:34:00;;;;;;;2.75;1.50;;;20.40;53.60;;;;;;5052214;28;20521;-65
2022/07/28 00:36:26;;;;;;;1.85;1.48;;;20.30;53.60;;;;;;5051244;28;21017;-63
2022/07/28 00:38:52;;;;;;;3.28;1.50;;;20.40;53.70;;;;;;5050991;28;20031;-63
2022/07/28 00:41:19;;;;;;;1.98;1.50;;;20.30;53.60;;;;;;5051979;28;20094;-62
2022/07/28 00:43:47;;;;;;;1.48;1.20;;;20.30;53.70;;;;;;5052852;28;20049;-63
2022/07/28 00:46:14;;;;;;;2.55;1.20;;;20.30;53.60;;;;;;5050844;28;20389;-62
2022/07/28 00:48:43;;;;;;;1.60;1.23;;;20.30;53.60;;;;;;5051724;28;20044;-63
2022/07/28 00:51:10;;;;;;;2.58;1.27;;;20.30;53.80;;;;;;5051872;28;20052;-62
2022/07/28 00:53:39;;;;;;;2.47;1.23;;;20.30;53.60;;;;;;5052243;28;20530;-63
2022/07/28 00:56:05;;;;;;;2.90;1.48;;;20.30;53.80;;;;;;5052956;28;20206;-66
2022/07/28 00:58:31;;;;;;;2.45;1.42;;;20.20;53.70;;;;;;5050174;28;20044;-63
2022/07/28 01:00:57;;;;;;;4.35;1.50;;;20.20;53.80;;;;;;5053571;28;20070;-63
2022/07/28 01:03:24;;;;;;;5.05;1.40;;;20.20;53.90;;;;;;5055637;28;20037;-64
2022/07/28 01:06:22;;;;;;;2.13;1.40;;;20.20;54.00;;;;;;5057056;28;20503;-62
2022/07/28 01:08:56;;;;;;;1.27;1.17;;;20.20;54.40;;;;;;5040773;28;20043;-63
2022/07/28 01:11:33;;;;;;;3.90;1.57;;;20.20;54.00;;;;;;5056009;28;20040;-62
2022/07/28 01:14:17;;;;;;;5.78;1.60;;;20.20;54.90;;;;;;5051957;28;20040;-62
2022/07/28 01:16:52;;;;;;;4.55;1.60;;;20.10;54.00;;;;;;5056252;28;20036;-63
2022/07/28 01:19:42;;;;;;;2.33;1.40;;;20.10;54.00;;;;;;5058489;28;20036;-63
2022/07/28 01:22:11;;;;;;;1.58;1.48;;;20.10;54.20;;;;;;5060071;28;20040;-63
2022/07/28 01:25:11;;;;;;;1.50;1.40;;;20.10;54.00;;;;;;5056660;28;20044;-63
2022/07/28 01:28:22;;;;;;;2.47;1.35;;;20.10;54.50;;;;;;5056149;28;20028;-63
2022/07/28 01:30:53;;;;;;;3.75;1.40;;;20.00;54.40;;;;;;5024210;28;20041;-62
2022/07/28 01:33:33;;;;;;;3.20;1.25;;;20.00;54.20;;;;;;5052048;28;20139;-64
2022/07/28 01:36:10;;;;;;;1.42;1.33;;;20.00;54.50;;;;;;5054685;28;20382;-62
2022/07/28 01:38:38;;;;;;;1.58;1.48;;;19.90;54.40;;;;;;5054646;28;20581;-62
2022/07/28 01:41:06;;;;;;;1.83;1.40;;;19.90;54.40;;;;;;5053501;28;20586;-63
2022/07/28 01:43:36;;;;;;;1.60;1.50;;;19.90;54.40;;;;;;5053482;28;20048;-63
2022/07/28 01:46:03;;;;;;;1.65;1.17;;;19.90;54.50;;;;;;5052275;28;20041;-63
2022/07/28 01:48:30;;;;;;;1.75;1.58;;;19.90;54.60;;;;;;5054386;28;20039;-63
2022/07/28 01:50:57;;;;;;;2.00;1.50;;;19.90;54.80;;;;;;5052904;28;20036;-64
2022/07/28 01:53:24;;;;;;;1.92;1.77;;;19.90;54.80;;;;;;5054740;28;20075;-63
2022/07/28 01:55:51;;;;;;;3.30;1.67;;;19.80;54.80;;;;;;5056833;28;20315;-63
2022/07/28 01:58:20;;;;;;;1.67;1.48;;;19.80;54.90;;;;;;5053276;28;20060;-63
2022/07/28 02:00:51;;;;;;;2.83;1.55;;;19.80;55.10;;;;;;5053765;28;20041;-60
2022/07/28 02:03:18;;;;;;;2.47;1.60;;;19.80;55.30;;;;;;5053375;28;20037;-60
2022/07/28 02:05:45;;;;;;;1.45;1.35;;;19.70;55.20;;;;;;5053047;28;20081;-62
2022/07/28 02:08:12;;;;;;;3.78;1.85;;;19.70;55.20;;;;;;5058635;28;20328;-62
2022/07/28 02:10:42;;;;;;;3.40;1.80;;;19.70;55.40;;;;;;5055632;28;20036;-63
2022/07/28 02:13:10;;;;;;;2.28;1.80;;;19.70;55.60;;;;;;5057869;28;20440;-63
2022/07/28 02:15:37;;;;;;;1.90;1.80;;;19.60;55.40;;;;;;5058596;28;20037;-60
2022/07/28 02:18:05;;;;;;;3.35;1.77;;;19.60;55.50;;;;;;5057360;28;20036;-61
2022/07/28 02:20:31;;;;;;;1.70;1.60;;;19.40;55.60;;;;;;5058027;28;20036;-63
2022/07/28 02:22:57;;;;;;;3.13;1.73;;;19.60;55.60;;;;;;5059082;28;20033;-62
2022/07/28 02:25:24;;;;;;;2.95;1.80;;;19.50;55.60;;;;;;5057914;28;20112;-61
2022/07/28 02:27:57;;;;;;;3.05;2.10;;;19.50;55.70;;;;;;5056862;28;20040;-63
2022/07/28 02:30:35;;;;;;;2.15;1.95;;;19.50;55.90;;;;;;5057843;28;20131;-62
2022/07/28 02:33:11;;;;;;;2.28;2.00;;;19.50;56.20;;;;;;5056365;28;20127;-62
2022/07/28 02:35:48;;;;;;;3.20;2.15;;;19.40;56.10;;;;;;5057847;28;20108;-62
2022/07/28 02:38:28;;;;;;;3.67;2.03;;;19.40;56.30;;;;;;5057900;28;20040;-62
2022/07/28 02:40:59;;;;;;;3.50;2.15;;;19.30;56.40;;;;;;5056745;28;20043;-62
2022/07/28 02:43:27;;;;;;;2.67;2.22;;;19.30;56.30;;;;;;5056439;28;20107;-63
2022/07/28 02:45:59;;;;;;;2.30;2.10;;;19.20;56.40;;;;;;5057689;28;20044;-62
2022/07/28 02:48:28;;;;;;;2.50;2.17;;;19.20;56.60;;;;;;5057315;28;20029;-61
2022/07/28 02:50:56;;;;;;;2.45;2.13;;;19.10;56.70;;;;;;5057595;28;20070;-62
2022/07/28 02:53:24;;;;;;;2.35;2.00;;;19.10;56.90;;;;;;5057639;28;20133;-64
2022/07/28 02:55:51;;;;;;;2.33;2.13;;;19.00;57.00;;;;;;5058618;28;20111;-62
2022/07/28 02:58:23;;;;;;;3.15;2.22;;;19.00;57.10;;;;;;5058771;28;20036;-63
2022/07/28 03:00:50;;;;;;;2.50;2.30;;;19.00;57.20;;;;;;5058474;28;20040;-61
2022/07/28 03:03:17;;;;;;;2.70;2.28;;;19.00;57.30;;;;;;5058076;28;20029;-63
2022/07/28 03:05:43;;;;;;;3.00;2.17;;;19.00;57.50;;;;;;5056742;28;20037;-62
2022/07/28 03:08:09;;;;;;;3.95;2.40;;;18.90;57.50;;;;;;5058336;28;20672;-62
2022/07/28 03:10:35;;;;;;;2.75;2.55;;;18.90;57.70;;;;;;5054728;28;20123;-63
2022/07/28 03:13:04;;;;;;;2.70;2.50;;;18.90;57.90;;;;;;5055908;28;20124;-63
2022/07/28 03:15:30;;;;;;;3.08;2.70;;;18.90;58.10;;;;;;5057485;28;20317;-63
2022/07/28 03:17:56;;;;;;;4.20;2.70;;;18.80;58.10;;;;;;5058559;28;20497;-62
2022/07/28 03:20:22;;;;;;;3.35;2.83;;;18.80;58.30;;;;;;5058469;28;20072;-62
2022/07/28 03:22:48;;;;;;;2.60;2.33;;;18.80;58.40;;;;;;5058706;28;20060;-60
2022/07/28 03:25:34;;;;;;;2.83;2.63;;;18.80;58.50;;;;;;5055274;28;20037;-62
2022/07/28 03:28:00;;;;;;;2.72;2.53;;;18.70;59.10;;;;;;5057365;28;20495;-62
2022/07/28 03:30:31;;;;;;;2.88;2.67;;;18.70;58.60;;;;;;5055857;28;20584;-63
2022/07/28 03:32:59;;;;;;;2.88;2.67;;;18.70;59.00;;;;;;5056586;28;20029;-62
2022/07/28 03:35:26;;;;;;;3.83;2.63;;;18.70;59.00;;;;;;5055997;28;20029;-63
2022/07/28 03:38:12;;;;;;;3.15;2.90;;;18.70;59.00;;;;;;5056682;28;20037;-60
2022/07/28 03:40:38;;;;;;;3.35;3.03;;;18.60;59.90;;;;;;5056704;28;20681;-62
2022/07/28 03:43:07;;;;;;;4.35;3.28;;;18.70;59.30;;;;;;5057261;28;20032;-62
2022/07/28 03:45:33;;;;;;;3.63;3.08;;;18.60;59.60;;;;;;5056106;28;20041;-62
2022/07/28 03:47:59;;;;;;;5.85;2.75;;;18.60;59.60;;;;;;5054916;28;20032;-60
2022/07/28 03:50:27;;;;;;;4.38;3.28;;;18.60;59.60;;;;;;5053933;28;20051;-63
2022/07/28 03:52:54;;;;;;;3.38;3.08;;;18.60;59.70;;;;;;5053753;28;20400;-63
2022/07/28 03:55:20;;;;;;;3.47;3.03;;;18.60;59.90;;;;;;5054827;28;20123;-62
2022/07/28 03:57:46;;;;;;;3.83;3.30;;;18.50;60.00;;;;;;5050217;28;20140;-62
2022/07/28 04:00:13;;;;;;;3.83;3.40;;;18.50;60.10;;;;;;5051420;28;20033;-63
2022/07/28 04:02:45;;;;;;;4.32;3.30;;;18.50;60.40;;;;;;5047535;28;20040;-62
2022/07/28 04:05:11;;;;;;;3.95;3.40;;;18.50;60.60;;;;;;5051863;28;20033;-61
2022/07/28 04:07:38;;;;;;;4.00;3.65;;;18.50;60.70;;;;;;5052082;28;20036;-60
2022/07/28 04:10:05;;;;;;;4.13;3.72;;;18.50;60.80;;;;;;5051450;28;20079;-63
2022/07/28 04:12:47;;;;;;;3.70;3.40;;;18.50;61.10;;;;;;5050158;28;20119;-63
2022/07/28 04:15:13;;;;;;;3.92;3.58;;;18.50;62.00;;;;;;5050716;28;20040;-62
2022/07/28 04:17:40;;;;;;;4.07;3.65;;;18.50;61.30;;;;;;5051602;28;20028;-63
2022/07/28 04:20:07;;;;;;;3.97;3.58;;;18.50;61.40;;;;;;5050036;28;20124;-62
2022/07/28 04:22:32;;;;;;;4.00;3.53;;;18.40;61.50;;;;;;5050931;28;20025;-61
2022/07/28 04:24:58;;;;;;;4.45;3.40;;;18.40;61.50;;;;;;5051397;28;20746;-63
2022/07/28 04:27:24;;;;;;;4.43;3.38;;;18.40;61.50;;;;;;5051478;28;20033;-63
2022/07/28 04:29:49;;;;;;;3.80;3.50;;;18.40;61.70;;;;;;5051827;28;20058;-63
2022/07/28 04:32:15;;;;;;;3.67;3.38;;;18.40;61.90;;;;;;5050560;28;20040;-62
2022/07/28 04:34:40;;;;;;;3.90;3.58;;;18.40;61.80;;;;;;5050029;28;20123;-61
2022/07/28 04:37:07;;;;;;;3.75;3.45;;;18.40;62.00;;;;;;5052919;28;20033;-62
2022/07/28 04:39:34;;;;;;;4.55;3.35;;;18.40;62.00;;;;;;5051426;28;21532;-62
2022/07/28 04:41:59;;;;;;;3.75;3.20;;;18.50;62.20;;;;;;5055615;28;20037;-63
2022/07/28 04:44:25;;;;;;;5.68;3.67;;;18.50;62.10;;;;;;5053792;28;20387;-62
2022/07/28 04:46:50;;;;;;;3.88;3.15;;;18.50;62.30;;;;;;5051784;28;20037;-61
2022/07/28 04:49:16;;;;;;;3.58;3.28;;;18.50;62.40;;;;;;5054657;28;20036;-63
2022/07/28 04:51:47;;;;;;;6.30;3.80;;;18.50;62.50;;;;;;5053118;28;20404;-63
2022/07/28 04:54:12;;;;;;;5.70;3.60;;;18.40;62.70;;;;;;5053615;28;20039;-63
2022/07/28 04:56:38;;;;;;;5.72;4.00;;;18.40;62.90;;;;;;5054037;28;20036;-62
2022/07/28 04:59:04;;;;;;;3.72;3.40;;;18.40;63.10;;;;;;5054149;28;20643;-61
2022/07/28 05:01:29;;;;;;;6.63;3.40;;;18.40;63.30;;;;;;5052640;28;20553;-61
2022/07/28 05:03:55;;;;;;;4.20;3.80;;;18.40;63.30;;;;;;5055535;28;20068;-62
2022/07/28 05:06:20;;;;;;;6.43;3.90;;;18.40;63.60;;;;;;5054625;28;20485;-62
2022/07/28 05:08:46;;;;;;;3.97;3.67;;;18.50;63.60;;;;;;5053489;28;20041;-63
2022/07/28 05:11:12;;;;;;;4.05;3.22;;;18.40;63.70;;;;;;5049834;28;20382;-62
2022/07/28 05:13:37;;;;;;;4.45;3.40;;;18.40;63.80;;;;;;5052253;28;20063;-61
2022/07/28 05:16:03;;;;;;;4.93;3.88;;;18.40;64.00;;;;;;5053034;28;20041;-62
2022/07/28 05:18:29;;;;;;;4.53;4.13;;;18.40;64.00;;;;;;5051147;28;20040;-63
2022/07/28 05:20:54;;;;;;;4.22;3.22;;;18.50;64.40;;;;;;5055084;28;20036;-62
2022/07/28 05:23:20;;;;;;;6.50;3.97;;;18.50;64.30;;;;;;5052597;28;20116;-61
2022/07/28 05:25:45;;;;;;;6.80;3.72;;;18.50;64.50;;;;;;5053534;28;20051;-62
2022/07/28 05:28:11;;;;;;;9.82;4.30;;;18.50;64.60;;;;;;5055530;28;20044;-62
2022/07/28 05:30:37;;;;;;;6.85;4.28;;;18.50;64.90;;;;;;5051242;28;20145;-60
2022/07/28 05:33:02;;;;;;;4.75;4.00;;;18.50;64.90;;;;;;5052819;28;20036;-62
2022/07/28 05:35:28;;;;;;;6.05;4.10;;;18.60;64.90;;;;;;5049713;28;20055;-62
2022/07/28 05:37:54;;;;;;;4.47;4.00;;;18.60;65.10;;;;;;5054167;28;20513;-63
2022/07/28 05:40:20;;;;;;;8.43;3.95;;;18.60;65.20;;;;;;5054087;28;20037;-63
2022/07/28 05:42:46;;;;;;;4.40;4.00;;;18.60;65.20;;;;;;5051537;28;20037;-63
2022/07/28 05:45:13;;;;;;;4.82;4.40;;;18.70;65.30;;;;;;5054196;28;20060;-64
2022/07/28 05:47:45;;;;;;;6.55;4.15;;;18.80;65.30;;;;;;5051114;28;20356;-62
2022/07/28 05:50:11;;;;;;;6.72;4.47;;;18.80;65.70;;;;;;5055296;28;20029;-63
2022/07/28 05:52:36;;;;;;;5.57;4.50;;;18.80;65.50;;;;;;5055026;28;20025;-61
2022/07/28 05:55:03;;;;;;;5.15;4.22;;;18.90;65.40;;;;;;5055767;28;20037;-62
2022/07/28 05:57:28;;;;;;;4.60;4.13;;;18.90;65.40;;;;;;5058411;28;20540;-63
2022/07/28 05:59:54;;;;;;;5.32;4.55;;;18.90;65.30;;;;;;5058451;28;20117;-63
2022/07/28 06:02:20;;;;;;;4.75;4.13;;;19.00;65.40;;;;;;5055677;28;20052;-62
2022/07/28 06:04:45;;;;;;;6.47;4.60;;;19.00;66.20;;;;;;5057024;28;20033;-62
2022/07/28 06:07:11;;;;;;;5.90;4.57;;;19.10;65.30;;;;;;5054774;28;20043;-63
2022/07/28 06:09:36;;;;;;;5.47;4.90;;;19.20;65.20;;;;;;5055773;28;20024;-62
2022/07/28 06:12:02;;;;;;;4.97;4.43;;;19.20;65.00;;;;;;5053986;28;20052;-63
2022/07/28 06:14:28;;;;;;;5.30;4.57;;;19.30;64.70;;;;;;5055366;28;20484;-61
2022/07/28 06:16:53;;;;;;;8.35;4.90;;;19.40;64.70;;;;;;5056272;28;20536;-62
2022/07/28 06:19:19;;;;;;;5.20;4.75;;;19.50;64.60;;;;;;5057512;28;20040;-62
2022/07/28 06:21:46;;;;;;;7.45;4.95;;;19.50;64.70;;;;;;5057274;28;20895;-61
2022/07/28 06:24:12;;;;;;;5.35;4.85;;;19.50;64.70;;;;;;5054568;28;20060;-62
2022/07/28 06:26:38;;;;;;;5.70;4.63;;;19.60;64.60;;;;;;5054693;28;20059;-63
2022/07/28 06:29:05;;;;;;;7.07;4.90;;;19.70;64.60;;;;;;5057425;28;20067;-63
2022/07/28 06:31:30;;;;;;;5.85;5.32;;;19.70;64.50;;;;;;5057041;28;20177;-62
2022/07/28 06:33:56;;;;;;;6.13;4.95;;;19.80;64.50;;;;;;5057291;28;20086;-60
2022/07/28 06:36:22;;;;;;;6.47;4.65;;;19.80;64.40;;;;;;5057842;28;20033;-63
2022/07/28 06:38:48;;;;;;;5.57;4.97;;;19.90;64.30;;;;;;5056865;28;20090;-60
2022/07/28 06:41:14;;;;;;;5.68;5.18;;;19.90;64.30;;;;;;5054611;28;20090;-63
2022/07/28 06:43:39;;;;;;;6.82;5.03;;;20.00;64.30;;;;;;5055858;28;20045;-63
2022/07/28 06:46:06;;;;;;;6.85;5.70;;;20.00;64.10;;;;;;5056503;28;20465;-61
2022/07/28 06:48:32;;;;;;;6.47;5.78;;;20.10;65.30;;;;;;5056526;28;20033;-62
2022/07/28 06:50:58;;;;;;;6.45;5.40;;;20.10;64.30;;;;;;5056445;28;20045;-60
2022/07/28 06:53:25;;;;;;;6.82;5.80;;;20.10;64.10;;;;;;5055729;28;20040;-62
2022/07/28 06:55:51;;;;;;;5.60;5.10;;;20.20;64.10;;;;;;5054660;28;20048;-62
2022/07/28 06:58:16;;;;;;;7.50;6.05;;;20.30;64.40;;;;;;5057364;28;20553;-63
2022/07/28 07:00:42;;;;;;;6.57;5.85;;;20.30;64.20;;;;;;5054719;28;20041;-63
2022/07/28 07:03:07;;;;;;;6.35;5.53;;;20.40;64.10;;;;;;5055001;28;20036;-61
2022/07/28 07:05:33;;;;;;;7.30;5.75;;;20.50;64.80;;;;;;5056379;28;20116;-62
2022/07/28 07:07:59;;;;;;;7.70;5.43;;;20.50;63.60;;;;;;5056353;28;20037;-63
2022/07/28 07:10:24;;;;;;;7.00;5.68;;;20.60;63.60;;;;;;5054728;28;20051;-64
2022/07/28 07:12:50;;;;;;;8.13;5.60;;;20.60;63.60;;;;;;5054806;28;20036;-63
2022/07/28 07:15:16;;;;;;;6.13;5.53;;;20.60;63.60;;;;;;5057265;28;20036;-62
2022/07/28 07:17:41;;;;;;;6.18;5.28;;;20.70;63.40;;;;;;5054623;28;20054;-62
2022/07/28 07:20:08;;;;;;;5.90;5.30;;;20.80;63.50;;;;;;5057307;28;20036;-63
2022/07/28 07:22:34;;;;;;;7.70;5.97;;;20.80;63.30;;;;;;5054234;28;20955;-61
2022/07/28 07:25:11;;;;;;;8.27;5.47;;;20.90;63.40;;;;;;5055507;28;20064;-62
2022/07/28 07:27:37;;;;;;;5.55;5.05;;;20.90;63.60;;;;;;5055178;28;20031;-63
2022/07/28 07:30:05;;;;;;;6.63;5.75;;;21.00;63.10;;;;;;5056142;28;20036;-63
2022/07/28 07:32:31;;;;;;;6.63;5.30;;;21.10;63.00;;;;;;5053826;28;20029;-63
2022/07/28 07:34:57;;;;;;;6.05;5.43;;;21.20;62.60;;;;;;5054801;28;20029;-63
2022/07/28 07:37:23;;;;;;;6.13;5.63;;;21.20;62.60;;;;;;5053254;28;20029;-61
2022/07/28 07:39:49;;;;;;;8.43;5.63;;;21.30;62.50;;;;;;5052936;28;20056;-62
2022/07/28 07:42:16;;;;;;;7.88;5.45;;;21.40;62.30;;;;;;5055071;28;20032;-62
2022/07/28 07:44:41;;;;;;;6.05;5.43;;;21.40;62.40;;;;;;5055718;28;20040;-64
2022/07/28 07:47:10;;;;;;;8.20;5.32;;;21.50;62.00;;;;;;5052273;28;20024;-60
2022/07/28 07:49:39;;;;;;;6.13;5.40;;;21.60;62.00;;;;;;5052917;28;20098;-63
2022/07/28 07:52:04;;;;;;;6.07;5.38;;;21.60;61.90;;;;;;5056457;28;20389;-63
2022/07/28 07:54:30;;;;;;;7.38;6.30;;;21.70;61.70;;;;;;5053280;28;20044;-61
2022/07/28 07:56:56;;;;;;;6.53;5.93;;;21.80;61.70;;;;;;5055341;28;20209;-61
2022/07/28 07:59:21;;;;;;;6.53;5.38;;;21.80;61.50;;;;;;5055128;28;20467;-63
2022/07/28 08:01:52;;;;;;;5.65;5.15;;;21.90;62.30;;;;;;5049474;28;20048;-63
2022/07/28 08:04:18;;;;;;;6.50;5.90;;;21.90;61.30;;;;;;5055851;28;20036;-63
2022/07/28 08:06:44;;;;;;;7.47;5.63;;;22.00;61.10;;;;;;5053689;28;20552;-62
2022/07/28 08:09:09;;;;;;;6.30;5.38;;;22.10;61.00;;;;;;5056420;28;20037;-62
2022/07/28 08:11:35;;;;;;;7.55;5.53;;;22.20;61.00;;;;;;5052637;28;20047;-62
2022/07/28 08:14:01;;;;;;;6.80;5.00;;;22.30;60.80;;;;;;5056390;28;20033;-63
2022/07/28 08:16:26;;;;;;;7.00;5.43;;;22.40;60.90;;;;;;5055827;28;20043;-62
2022/07/28 08:18:52;;;;;;;9.10;4.95;;;22.50;60.60;;;;;;5053700;28;20043;-63
2022/07/28 08:21:18;;;;;;;8.30;5.65;;;22.60;60.50;;;;;;5056161;28;20514;-64
2022/07/28 08:23:43;;;;;;;6.82;5.57;;;22.70;60.30;;;;;;5052704;28;20039;-63
2022/07/28 08:26:09;;;;;;;6.00;5.40;;;22.80;60.10;;;;;;5056785;28;20056;-63
2022/07/28 08:28:34;;;;;;;5.78;5.22;;;22.90;59.90;;;;;;5053614;28;20109;-63
2022/07/28 08:31:00;;;;;;;6.20;5.10;;;23.00;60.00;;;;;;5053925;28;20048;-62
2022/07/28 08:33:26;;;;;;;6.18;5.25;;;23.10;60.10;;;;;;5053622;28;20123;-60
2022/07/28 08:35:51;;;;;;;7.47;4.93;;;23.20;59.80;;;;;;5053870;28;20029;-62
2022/07/28 08:38:17;;;;;;;5.60;4.93;;;23.30;59.40;;;;;;5055491;28;20055;-64
2022/07/28 08:40:46;;;;;;;6.22;5.10;;;23.40;59.20;;;;;;5053160;28;20048;-63
2022/07/28 08:43:34;;;;;;;7.10;4.90;;;23.50;58.90;;;;;;5055293;28;20625;-62
2022/07/28 08:46:02;;;;;;;5.60;3.97;;;23.60;58.60;;;;;;5054690;28;20307;-62
2022/07/28 08:48:36;;;;;;;5.72;4.97;;;23.70;58.80;;;;;;5051399;28;20036;-61
2022/07/28 08:51:11;;;;;;;5.05;4.55;;;23.80;58.50;;;;;;5055295;28;20067;-63
2022/07/28 08:53:38;;;;;;;5.15;4.65;;;23.90;58.50;;;;;;5055447;28;20028;-63
2022/07/28 08:56:14;;;;;;;6.25;4.13;;;24.00;58.30;;;;;;5051396;28;20032;-63
2022/07/28 08:58:40;;;;;;;4.55;4.13;;;24.10;58.00;;;;;;5051973;28;20526;-62
2022/07/28 09:01:07;;;;;;;4.57;4.18;;;24.30;58.00;;;;;;5052340;28;20033;-61
2022/07/28 09:03:33;;;;;;;6.93;3.65;;;24.40;57.60;;;;;;5056893;28;20056;-63
2022/07/28 09:05:59;;;;;;;4.13;3.67;;;24.50;58.20;;;;;;5056780;28;20492;-60
2022/07/28 09:08:25;;;;;;;5.70;4.50;;;24.60;57.30;;;;;;5055108;28;20040;-61
2022/07/28 09:10:51;;;;;;;4.30;3.90;;;24.70;57.00;;;;;;5055213;28;20119;-60
2022/07/28 09:13:18;;;;;;;4.10;3.80;;;24.80;56.80;;;;;;5056481;28;20071;-61
2022/07/28 09:15:47;;;;;;;6.03;4.07;;;24.90;56.90;;;;;;5055758;28;20025;-62
2022/07/28 09:18:19;;;;;;;4.07;3.50;;;25.00;56.70;;;;;;5056588;28;20036;-61
2022/07/28 09:20:45;;;;;;;6.47;4.00;;;25.10;56.00;;;;;;5055732;28;20584;-63
2022/07/28 09:23:11;;;;;;;8.50;4.00;;;25.30;56.00;;;;;;5055367;28;20037;-62
2022/07/28 09:25:37;;;;;;;4.45;3.60;;;25.40;55.70;;;;;;5056603;28;20029;-63
2022/07/28 09:28:14;;;;;;;3.85;3.55;;;25.50;55.60;;;;;;5059059;28;20040;-62
2022/07/28 09:30:45;;;;;;;3.97;3.60;;;25.50;55.00;;;;;;5057304;28;20044;-63
2022/07/28 09:33:16;;;;;;;4.57;3.70;;;25.60;54.90;;;;;;5058256;28;20500;-63
2022/07/28 09:35:44;;;;;;;6.70;3.63;;;25.70;54.90;;;;;;5055915;28;20140;-62
2022/07/28 09:38:09;;;;;;;4.03;3.72;;;25.70;54.70;;;;;;5057952;28;20028;-62
2022/07/28 09:40:35;;;;;;;5.45;4.20;;;25.90;54.50;;;;;;5056086;28;20086;-61
2022/07/28 09:43:00;;;;;;;5.65;3.72;;;26.00;54.40;;;;;;5058474;28;20037;-63
2022/07/28 09:45:27;;;;;;;3.78;3.35;;;26.00;54.00;;;;;;5056978;28;20041;-63
2022/07/28 09:48:10;;;;;;;7.38;3.45;;;26.10;53.90;;;;;;5059801;28;20074;-62
2022/07/28 09:50:37;;;;;;;4.50;3.30;;;26.20;53.30;;;;;;5057937;28;20041;-63
2022/07/28 09:53:21;;;;;;;4.07;3.55;;;26.30;53.30;;;;;;5058114;28;20025;-63
2022/07/28 09:56:13;;;;;;;4.25;3.40;;;26.40;52.20;;;;;;5055561;28;20024;-63
2022/07/28 09:58:40;;;;;;;7.57;3.30;;;26.60;52.90;;;;;;5053116;28;20025;-63
2022/07/28 10:01:11;;;;;;;3.33;3.03;;;26.60;52.80;;;;;;5057889;28;20052;-63
2022/07/28 10:03:39;;;;;;;3.45;3.20;;;26.70;52.80;;;;;;5053833;28;20113;-63
2022/07/28 10:06:10;;;;;;;4.63;3.47;;;26.80;52.70;;;;;;5056227;28;20115;-62
2022/07/28 10:08:49;;;;;;;4.60;3.20;;;26.80;52.60;;;;;;5056130;28;20036;-63
2022/07/28 10:11:17;;;;;;;3.13;2.90;;;27.00;52.20;;;;;;5056294;28;20454;-63
2022/07/28 10:13:54;;;;;;;3.25;2.95;;;27.10;52.00;;;;;;5058875;28;20044;-63
2022/07/28 10:16:20;;;;;;;2.88;2.67;;;27.20;51.50;;;;;;5056482;28;20036;-62
2022/07/28 10:18:46;;;;;;;4.13;3.03;;;27.20;51.70;;;;;;5056420;28;20411;-63
2022/07/28 10:21:15;;;;;;;4.35;3.03;;;27.30;51.60;;;;;;5059082;28;20906;-63
2022/07/28 10:23:49;;;;;;;3.10;2.90;;;27.40;51.30;;;;;;5057963;28;20045;-62
2022/07/28 10:26:16;;;;;;;4.35;2.90;;;27.50;50.80;;;;;;5058098;28;20032;-63
2022/07/28 10:28:47;;;;;;;4.57;3.20;;;27.50;51.00;;;;;;5056817;28;20060;-63
2022/07/28 10:31:21;;;;;;;3.45;3.15;;;27.60;50.20;;;;;;5056596;28;20033;-61
2022/07/28 10:33:51;;;;;;;3.80;2.65;;;27.70;50.10;;;;;;5054448;28;20527;-62
2022/07/28 10:36:21;;;;;;;3.30;3.00;;;27.70;50.10;;;;;;5055470;28;20047;-63
2022/07/28 10:38:48;;;;;;;3.70;2.65;;;27.80;50.00;;;;;;5055980;28;20589;-65
2022/07/28 10:41:16;;;;;;;6.70;3.20;;;27.80;49.90;;;;;;5055765;28;20518;-63
2022/07/28 10:43:43;;;;;;;5.25;2.50;;;27.90;49.50;;;;;;5053441;28;20048;-64
2022/07/28 10:46:09;;;;;;;3.53;2.60;;;28.00;49.30;;;;;;5056721;28;20037;-63
2022/07/28 10:48:39;;;;;;;4.72;2.70;;;28.00;48.90;;;;;;5053682;28;20090;-62
2022/07/28 10:51:05;;;;;;;2.80;2.60;;;28.00;48.20;;;;;;5055908;28;20044;-63
2022/07/28 10:53:45;;;;;;;3.80;2.75;;;28.10;48.80;;;;;;5057302;28;20041;-63
2022/07/28 10:56:17;;;;;;;2.80;2.60;;;28.10;48.40;;;;;;5056664;28;20123;-63
2022/07/28 10:58:54;;;;;;;3.05;2.75;;;28.10;48.40;;;;;;5056249;28;20056;-63
2022/07/28 11:01:34;;;;;;;4.85;2.80;;;28.10;48.40;;;;;;5056146;28;20570;-65
2022/07/28 11:04:00;;;;;;;3.70;2.60;;;28.20;48.20;;;;;;5055659;28;20051;-63
2022/07/28 11:06:29;;;;;;;2.63;2.50;;;28.20;48.50;;;;;;5055147;28;20032;-63
2022/07/28 11:09:15;;;;;;;3.47;2.60;;;28.30;47.90;;;;;;5058353;28;20116;-62
2022/07/28 11:11:51;;;;;;;3.22;2.65;;;28.30;47.50;;;;;;5055017;28;20079;-64
2022/07/28 11:14:22;;;;;;;3.10;2.50;;;28.40;47.50;;;;;;5057189;28;20563;-64
2022/07/28 11:17:09;;;;;;;4.13;2.45;;;28.50;47.20;;;;;;5053224;28;20117;-63
2022/07/28 11:19:42;;;;;;;2.20;2.10;;;28.50;47.50;;;;;;5049104;28;20072;-63
2022/07/28 11:22:13;;;;;;;2.55;2.20;;;28.60;46.80;;;;;;5054736;28;20041;-63
2022/07/28 11:24:57;;;;;;;3.70;2.50;;;28.60;46.20;;;;;;5056946;28;20117;-64
2022/07/28 11:27:41;;;;;;;3.90;2.08;;;28.70;45.70;;;;;;5055150;28;21895;-63
2022/07/28 11:30:34;;;;;;;3.03;2.27;;;28.70;46.10;;;;;;5054878;28;20510;-63
2022/07/28 11:33:04;;;;;;;2.17;1.92;;;28.80;46.00;;;;;;5048030;28;20041;-64
2022/07/28 11:35:50;;;;;;;2.40;1.80;;;28.90;45.80;;;;;;5054466;28;20036;-64
2022/07/28 11:38:16;;;;;;;2.17;1.98;;;28.90;45.90;;;;;;5055011;28;20032;-63
2022/07/28 11:40:46;;;;;;;3.10;2.13;;;29.00;45.50;;;;;;5053379;28;20032;-62
2022/07/28 11:43:21;;;;;;;5.00;2.20;;;29.10;44.90;;;;;;5054595;28;20131;-63
2022/07/28 11:46:00;;;;;;;1.88;1.77;;;29.10;44.50;;;;;;5055015;28;20399;-64
2022/07/28 11:48:27;;;;;;;3.35;1.80;;;29.20;44.10;;;;;;5055047;28;20025;-65
2022/07/28 11:51:01;;;;;;;1.80;1.65;;;29.20;44.60;;;;;;5052850;28;20066;-64
2022/07/28 11:53:37;;;;;;;;;;;29.30;44.70;;;;;;5056116;28;20264;-63
2022/07/28 11:56:09;;;;;;;2.45;1.85;;;29.40;45.60;;;;;;5054604;28;19927;-65
2022/07/28 11:58:36;;;;;;;2.05;1.80;;;29.40;43.90;;;;;;5055057;28;20033;-64
2022/07/28 12:01:18;;;;;;;3.50;1.98;;;29.50;44.40;;;;;;5053929;28;20029;-64
2022/07/28 12:03:51;;;;;;;5.88;1.90;;;29.50;43.10;;;;;;5055134;28;20047;-64
2022/07/28 12:06:19;;;;;;;3.25;1.60;;;29.60;43.30;;;;;;5053192;28;20044;-63
2022/07/28 12:08:59;;;;;;;5.20;1.83;;;29.60;43.20;;;;;;5054010;28;20614;-64
2022/07/28 12:11:26;;;;;;;3.72;2.00;;;29.60;42.60;;;;;;5052854;28;20047;-63
2022/07/28 12:14:01;;;;;;;1.92;1.83;;;29.70;43.20;;;;;;5052784;28;20125;-63
2022/07/28 12:16:28;;;;;;;2.45;1.92;;;29.70;42.60;;;;;;5054104;28;20123;-62
2022/07/28 12:18:54;;;;;;;2.63;1.73;;;29.80;43.00;;;;;;5056195;28;20036;-63
2022/07/28 12:21:35;;;;;;;2.05;1.83;;;29.80;43.00;;;;;;5053481;28;20033;-64
2022/07/28 12:24:01;;;;;;;3.63;1.63;;;29.80;42.40;;;;;;5054908;28;20579;-63
2022/07/28 12:26:34;;;;;;;2.35;1.75;;;29.90;42.60;;;;;;5055764;28;20430;-63
2022/07/28 12:29:01;;;;;;;3.35;1.75;;;29.90;41.70;;;;;;5055104;28;20059;-62
2022/07/28 12:31:32;;;;;;;2.05;1.60;;;30.00;42.40;;;;;;5053157;28;20037;-63
2022/07/28 12:33:58;;;;;;;2.13;1.63;;;30.00;42.10;;;;;;5052479;28;20500;-64
2022/07/28 12:36:25;;;;;;;2.13;1.70;;;30.10;42.10;;;;;;5052965;28;20037;-66
2022/07/28 12:38:51;;;;;;;2.80;2.17;;;30.20;42.50;;;;;;5052905;28;20561;-61
2022/07/28 12:41:17;;;;;;;3.55;1.90;;;30.20;41.40;;;;;;5053796;28;20486;-63
2022/07/28 12:43:53;;;;;;;2.42;1.58;;;30.20;41.20;;;;;;5051924;28;20040;-63
2022/07/28 12:46:26;;;;;;;5.25;1.80;;;30.20;41.30;;;;;;5052362;28;20445;-63
2022/07/28 12:48:54;;;;;;;2.53;1.75;;;30.20;41.00;;;;;;5053909;28;20038;-63
2022/07/28 12:51:40;;;;;;;3.15;1.80;;;30.20;41.20;;;;;;5051814;28;20044;-64
2022/07/28 12:54:11;;;;;;;2.05;1.80;;;30.30;41.00;;;;;;5053540;28;20041;-63
2022/07/28 12:56:49;;;;;;;2.63;2.03;;;30.30;40.60;;;;;;5053218;28;20048;-63